createdAt,value
2022-11-27T00:02:19.939Z,8.74
2022-11-27T00:04:51.374Z,8.36
2022-11-27T00:07:22.867Z,9.02
2022-11-27T00:09:54.327Z,9.09
2022-11-27T00:12:25.751Z,9.42
2022-11-27T00:14:57.251Z,9.69
2022-11-27T00:17:28.679Z,9.52
2022-11-27T00:20:00.122Z,9.88
2022-11-27T00:22:31.594Z,9.21
2022-11-27T00:25:03.139Z,9.36
2022-11-27T00:27:34.620Z,9.67
2022-11-27T00:30:06.860Z,9.82
2022-11-27T00:32:38.342Z,9.61
2022-11-27T00:35:09.882Z,9.42
2022-11-27T00:37:41.382Z,9.81
2022-11-27T00:40:13.007Z,10.26
2022-11-27T00:42:44.441Z,10.37
2022-11-27T00:45:16.040Z,10.83
2022-11-27T00:47:47.513Z,11.09
2022-11-27T00:50:19.555Z,10.88
2022-11-27T00:52:50.943Z,11.17
2022-11-27T00:55:22.374Z,10.37
2022-11-27T00:57:53.845Z,11.09
2022-11-27T01:00:25.307Z,10.83
2022-11-27T01:02:56.869Z,10.75
2022-11-27T01:05:28.309Z,11.04
2022-11-27T01:07:59.759Z,11.00
2022-11-27T01:10:31.150Z,10.75
2022-11-27T01:13:02.609Z,11.11
2022-11-27T01:15:34.080Z,10.78
2022-11-27T01:18:05.563Z,11.28
2022-11-27T01:20:40.856Z,11.59
2022-11-27T01:23:12.331Z,11.25
2022-11-27T01:25:43.737Z,12.41
2022-11-27T01:28:16.877Z,12.28
2022-11-27T01:30:49.538Z,13.37
2022-11-27T01:33:21.097Z,13.27
2022-11-27T01:35:58.068Z,13.56
2022-11-27T01:38:31.215Z,14.80
2022-11-27T01:41:15.334Z,14.84
2022-11-27T01:43:54.731Z,14.64
2022-11-27T01:46:38.112Z,14.81
2022-11-27T01:49:09.595Z,14.91
2022-11-27T01:52:17.112Z,16.32
2022-11-27T01:55:14.675Z,16.30
2022-11-27T01:57:51.214Z,16.68
2022-11-27T02:00:23.748Z,16.38
2022-11-27T02:02:55.796Z,16.33
2022-11-27T02:05:29.085Z,16.35
2022-11-27T02:08:06.064Z,15.24
2022-11-27T02:10:40.394Z,14.78
2022-11-27T02:13:29.796Z,14.08
2022-11-27T02:16:18.261Z,13.50
2022-11-27T02:19:15.196Z,12.80
2022-11-27T02:22:18.140Z,13.31
2022-11-27T02:25:02.506Z,13.47
2022-11-27T02:27:52.750Z,13.55
2022-11-27T02:30:24.279Z,13.75
2022-11-27T02:32:59.754Z,14.14
2022-11-27T02:35:47.205Z,16.51
2022-11-27T02:38:30.581Z,15.46
2022-11-27T02:41:16.921Z,16.22
2022-11-27T02:43:51.908Z,17.90
2022-11-27T02:46:26.536Z,19.01
2022-11-27T02:49:05.132Z,19.53
2022-11-27T02:51:44.652Z,19.47
2022-11-27T02:54:24.310Z,19.57
2022-11-27T02:57:00.684Z,20.30
2022-11-27T02:59:36.360Z,19.75
2022-11-27T03:02:14.479Z,18.51
2022-11-27T03:04:52.094Z,18.46
2022-11-27T03:07:35.887Z,18.63
2022-11-27T03:10:20.475Z,19.55
2022-11-27T03:12:52.593Z,19.45
2022-11-27T03:15:29.056Z,19.89
2022-11-27T03:18:41.203Z,20.18
2022-11-27T03:21:24.231Z,20.00
2022-11-27T03:23:57.794Z,19.87
2022-11-27T03:26:30.629Z,19.80
2022-11-27T03:29:06.231Z,20.70
2022-11-27T03:31:38.440Z,20.63
2022-11-27T03:34:10.822Z,19.94
2022-11-27T03:36:42.557Z,19.99
2022-11-27T03:39:14.499Z,19.46
2022-11-27T03:42:27.734Z,20.48
2022-11-27T03:45:05.036Z,19.84
2022-11-27T03:47:42.780Z,20.04
2022-11-27T03:50:48.468Z,19.37
2022-11-27T03:53:36.884Z,19.94
2022-11-27T03:56:30.293Z,20.50
2022-11-27T03:59:15.363Z,19.66
2022-11-27T04:01:48.049Z,20.36
2022-11-27T04:04:20.283Z,20.39
2022-11-27T04:06:51.814Z,19.24
2022-11-27T04:09:23.317Z,19.80
2022-11-27T04:11:54.826Z,19.75
2022-11-27T04:14:26.326Z,19.10
2022-11-27T04:16:57.795Z,18.78
2022-11-27T04:19:29.271Z,19.56
2022-11-27T04:22:00.729Z,19.37
2022-11-27T04:24:32.180Z,18.87
2022-11-27T04:27:03.724Z,19.33
2022-11-27T04:29:35.179Z,19.21
2022-11-27T04:32:06.611Z,19.30
2022-11-27T04:34:38.185Z,19.66
2022-11-27T04:37:09.849Z,18.64
2022-11-27T04:39:41.331Z,18.18
2022-11-27T04:42:12.742Z,18.18
2022-11-27T04:44:44.198Z,18.92
2022-11-27T04:47:15.710Z,18.07
2022-11-27T04:49:47.196Z,17.85
2022-11-27T04:52:18.709Z,18.62
2022-11-27T04:54:51.545Z,18.21
2022-11-27T04:57:24.692Z,17.39
2022-11-27T04:59:56.200Z,17.17
2022-11-27T05:02:27.693Z,17.31
2022-11-27T05:05:06.128Z,17.56
2022-11-27T05:07:40.544Z,17.63
2022-11-27T05:10:12.601Z,16.84
2022-11-27T05:12:44.074Z,17.30
2022-11-27T05:15:15.688Z,16.86
2022-11-27T05:17:47.277Z,16.36
2022-11-27T05:20:18.871Z,16.72
2022-11-27T05:22:50.315Z,16.70
2022-11-27T05:25:21.779Z,16.47
2022-11-27T05:27:53.264Z,16.91
2022-11-27T05:30:24.666Z,17.28
2022-11-27T05:32:56.105Z,17.46
2022-11-27T05:35:27.602Z,16.87
2022-11-27T05:37:59.142Z,17.14
2022-11-27T05:40:30.762Z,16.41
2022-11-27T05:43:02.270Z,15.45
2022-11-27T05:45:33.904Z,15.20
2022-11-27T05:48:05.552Z,15.17
2022-11-27T05:50:36.972Z,16.86
2022-11-27T05:53:08.393Z,16.18
2022-11-27T05:55:40.501Z,15.95
2022-11-27T05:58:11.944Z,15.19
2022-11-27T06:00:43.417Z,16.39
2022-11-27T06:03:14.900Z,16.00
2022-11-27T06:05:46.448Z,15.51
2022-11-27T06:08:18.156Z,16.05
2022-11-27T06:10:50.431Z,17.57
2022-11-27T06:13:21.894Z,17.09
2022-11-27T06:15:53.384Z,16.62
2022-11-27T06:18:24.820Z,16.42
2022-11-27T06:20:56.410Z,16.44
2022-11-27T06:23:27.914Z,16.03
2022-11-27T06:25:59.347Z,16.56
2022-11-27T06:28:30.771Z,16.04
2022-11-27T06:31:06.538Z,17.16
2022-11-27T06:33:38.867Z,16.16
2022-11-27T06:36:10.554Z,16.12
2022-11-27T06:38:42.950Z,16.64
2022-11-27T06:41:17.510Z,16.39
2022-11-27T06:43:48.937Z,16.73
2022-11-27T06:46:22.788Z,16.55
2022-11-27T06:48:55.002Z,16.35
2022-11-27T06:51:30.737Z,15.59
2022-11-27T06:54:02.807Z,15.91
2022-11-27T06:56:34.204Z,16.34
2022-11-27T06:59:05.665Z,16.52
2022-11-27T07:01:37.160Z,19.11
2022-11-27T07:04:13.871Z,17.94
2022-11-27T07:06:45.344Z,16.55
2022-11-27T07:09:16.781Z,15.35
2022-11-27T07:11:48.366Z,14.70
2022-11-27T07:14:19.862Z,14.59
2022-11-27T07:16:51.750Z,14.80
2022-11-27T07:19:23.218Z,14.78
2022-11-27T07:21:54.658Z,14.16
2022-11-27T07:24:26.142Z,14.49
2022-11-27T07:26:57.664Z,14.51
2022-11-27T07:29:29.131Z,13.73
2022-11-27T07:32:00.619Z,14.11
2022-11-27T07:34:32.071Z,14.28
2022-11-27T07:37:03.561Z,13.89
2022-11-27T07:40:00.798Z,13.61
2022-11-27T07:42:43.970Z,14.21
2022-11-27T07:45:15.569Z,14.04
2022-11-27T07:47:47.046Z,15.05
2022-11-27T07:50:18.756Z,14.29
2022-11-27T07:52:50.217Z,14.09
2022-11-27T07:55:21.728Z,14.53
2022-11-27T07:57:53.142Z,13.94
2022-11-27T08:00:24.753Z,14.30
2022-11-27T08:02:56.378Z,14.08
2022-11-27T08:05:28.517Z,15.57
2022-11-27T08:08:00.748Z,14.47
2022-11-27T08:10:36.491Z,14.54
2022-11-27T08:13:08.743Z,14.37
2022-11-27T08:15:40.172Z,13.76
2022-11-27T08:18:12.747Z,13.60
2022-11-27T08:20:44.225Z,13.04
2022-11-27T08:23:15.817Z,12.54
2022-11-27T08:25:47.452Z,12.67
2022-11-27T08:28:18.938Z,11.81
2022-11-27T08:30:58.120Z,12.88
2022-11-27T08:33:31.121Z,13.05
2022-11-27T08:36:03.683Z,12.96
2022-11-27T08:38:35.176Z,13.24
2022-11-27T08:41:08.570Z,13.53
2022-11-27T08:43:40.095Z,13.82
2022-11-27T08:46:12.156Z,13.93
2022-11-27T08:48:43.715Z,13.95
2022-11-27T08:51:15.988Z,13.53
2022-11-27T08:53:47.470Z,12.82
2022-11-27T08:56:23.196Z,11.83
2022-11-27T08:58:54.648Z,12.16
2022-11-27T09:01:29.511Z,11.28
2022-11-27T09:04:01.170Z,9.48
2022-11-27T09:06:33.313Z,9.24
2022-11-27T09:09:05.905Z,9.13
2022-11-27T09:11:38.089Z,9.04
2022-11-27T09:14:11.365Z,8.66
2022-11-27T09:16:42.905Z,9.17
2022-11-27T09:19:14.679Z,8.77
2022-11-27T09:21:46.255Z,9.15
2022-11-27T09:24:17.766Z,9.24
2022-11-27T09:26:49.532Z,8.94
2022-11-27T09:29:21.426Z,9.02
2022-11-27T09:31:53.032Z,8.99
2022-11-27T09:34:24.576Z,9.21
2022-11-27T09:36:56.088Z,9.69
2022-11-27T09:39:29.382Z,9.59
2022-11-27T09:42:06.178Z,9.46
2022-11-27T09:44:52.752Z,9.43
2022-11-27T09:47:41.480Z,10.48
2022-11-27T09:50:20.990Z,9.91
2022-11-27T09:52:58.115Z,9.68
2022-11-27T09:55:40.655Z,10.38
2022-11-27T09:58:41.232Z,10.08
2022-11-27T10:01:15.967Z,9.64
2022-11-27T10:03:47.857Z,9.84
2022-11-27T10:06:38.527Z,9.80
2022-11-27T10:09:32.536Z,9.98
2022-11-27T10:12:24.539Z,9.49
2022-11-27T10:15:32.409Z,9.66
2022-11-27T10:18:12.694Z,9.71
2022-11-27T10:20:50.806Z,9.72
2022-11-27T10:23:34.308Z,8.97
2022-11-27T10:26:18.456Z,9.36
2022-11-27T10:29:13.367Z,9.26
2022-11-27T10:31:51.973Z,8.77
2022-11-27T10:34:29.521Z,9.46
2022-11-27T10:37:12.528Z,9.37
2022-11-27T10:39:52.659Z,9.23
2022-11-27T10:43:07.863Z,9.35
2022-11-27T10:46:09.040Z,9.32
2022-11-27T10:48:41.196Z,9.61
2022-11-27T10:51:20.056Z,9.83
2022-11-27T10:53:54.867Z,9.30
2022-11-27T10:56:45.160Z,9.82
2022-11-27T10:59:31.313Z,9.98
2022-11-27T11:02:04.561Z,9.96
2022-11-27T11:04:38.728Z,9.71
2022-11-27T11:07:28.867Z,9.76
2022-11-27T11:10:00.641Z,9.90
2022-11-27T11:12:32.098Z,10.35
2022-11-27T11:15:11.565Z,9.25
2022-11-27T11:17:43.089Z,9.81
2022-11-27T11:20:25.098Z,9.36
2022-11-27T11:22:56.678Z,9.14
2022-11-27T11:25:28.168Z,9.39
2022-11-27T11:27:59.772Z,9.15
2022-11-27T11:30:31.294Z,9.16
2022-11-27T11:33:04.476Z,9.58
2022-11-27T11:35:37.263Z,9.74
2022-11-27T11:38:18.476Z,9.93
2022-11-27T11:41:06.308Z,9.71
2022-11-27T11:43:37.848Z,9.78
2022-11-27T11:46:23.028Z,9.85
2022-11-27T11:48:57.347Z,9.90
2022-11-27T11:51:47.442Z,9.89
2022-11-27T11:54:49.938Z,10.45
2022-11-27T11:57:41.633Z,9.96
2022-11-27T12:00:17.555Z,10.03
2022-11-27T12:03:00.747Z,10.63
2022-11-27T12:05:55.060Z,11.27
2022-11-27T12:08:38.517Z,10.36
2022-11-27T12:11:18.517Z,10.33
2022-11-27T12:14:06.872Z,10.15
2022-11-27T12:16:57.494Z,10.40
2022-11-27T12:19:50.487Z,10.26
2022-11-27T12:22:36.309Z,10.05
2022-11-27T12:25:32.153Z,9.50
2022-11-27T12:28:15.861Z,10.10
2022-11-27T12:30:47.332Z,10.18
2022-11-27T12:33:31.091Z,9.80
2022-11-27T12:36:11.798Z,10.36
2022-11-27T12:39:23.754Z,10.32
2022-11-27T12:42:21.629Z,9.94
2022-11-27T12:45:17.675Z,9.86
2022-11-27T12:48:07.279Z,9.92
2022-11-27T12:50:47.759Z,9.55
2022-11-27T12:53:34.802Z,9.74
2022-11-27T12:56:17.326Z,9.38
2022-11-27T12:59:29.317Z,9.66
2022-11-27T13:02:09.883Z,9.88
2022-11-27T13:04:49.810Z,9.66
2022-11-27T13:07:34.045Z,9.79
2022-11-27T13:10:16.793Z,10.90
2022-11-27T13:13:09.644Z,10.65
2022-11-27T13:16:00.781Z,10.28
2022-11-27T13:18:41.151Z,10.15
2022-11-27T13:21:19.398Z,9.99
2022-11-27T13:23:51.781Z,9.77
2022-11-27T13:26:52.234Z,9.54
2022-11-27T13:29:39.089Z,9.62
2022-11-27T13:32:23.395Z,9.61
2022-11-27T13:35:05.439Z,9.65
2022-11-27T13:37:40.801Z,9.32
2022-11-27T13:40:18.102Z,10.09
2022-11-27T13:42:54.359Z,9.46
2022-11-27T13:45:31.464Z,9.91
2022-11-27T13:48:24.864Z,10.44
2022-11-27T13:50:58.220Z,9.47
2022-11-27T13:53:42.129Z,9.74
2022-11-27T13:56:13.676Z,9.53
2022-11-27T13:58:45.227Z,9.29
2022-11-27T14:01:23.248Z,9.84
2022-11-27T14:04:06.253Z,10.04
2022-11-27T14:06:38.893Z,9.91
2022-11-27T14:09:13.595Z,10.30
2022-11-27T14:11:47.946Z,10.23
2022-11-27T14:14:27.003Z,10.83
2022-11-27T14:17:01.653Z,10.90
2022-11-27T14:19:44.085Z,10.24
2022-11-27T14:23:07.156Z,10.45
2022-11-27T14:25:34.955Z,10.02
2022-11-27T14:28:15.501Z,10.30
2022-11-27T14:30:50.764Z,10.27
2022-11-27T14:33:30.968Z,10.10
2022-11-27T14:36:06.491Z,10.71
2022-11-27T14:38:37.925Z,10.06
2022-11-27T14:41:15.572Z,9.84
2022-11-27T14:43:47.141Z,9.95
2022-11-27T14:46:21.920Z,10.05
2022-11-27T14:48:55.536Z,10.17
2022-11-27T14:51:30.007Z,11.24
2022-11-27T14:54:09.910Z,10.78
2022-11-27T14:56:44.351Z,10.51
2022-11-27T14:59:22.056Z,10.59
2022-11-27T15:02:13.334Z,10.06
2022-11-27T15:04:46.618Z,11.59
2022-11-27T15:07:31.752Z,11.29
2022-11-27T15:10:16.945Z,10.70
2022-11-27T15:12:49.675Z,10.51
2022-11-27T15:15:25.435Z,10.79
2022-11-27T15:18:02.179Z,10.15
2022-11-27T15:20:44.767Z,10.33
2022-11-27T15:23:30.252Z,9.84
2022-11-27T15:26:01.649Z,10.70
2022-11-27T15:28:43.788Z,10.95
2022-11-27T15:31:46.359Z,10.12
2022-11-27T15:34:17.766Z,10.14
2022-11-27T15:36:56.657Z,9.87
2022-11-27T15:39:45.998Z,10.03
2022-11-27T15:42:18.744Z,10.38
2022-11-27T15:44:56.895Z,10.39
2022-11-27T15:47:36.037Z,10.31
2022-11-27T15:50:13.812Z,10.35
2022-11-27T15:52:45.258Z,9.69
2022-11-27T15:55:16.802Z,10.42
2022-11-27T15:57:48.518Z,10.21
2022-11-27T16:00:20.736Z,9.47
2022-11-27T16:02:53.452Z,10.36
2022-11-27T16:05:24.933Z,10.62
2022-11-27T16:07:56.522Z,10.73
2022-11-27T16:10:28.040Z,10.60
2022-11-27T16:12:59.429Z,10.63
2022-11-27T16:15:33.087Z,12.83
2022-11-27T16:18:04.742Z,14.06
2022-11-27T16:20:36.178Z,12.54
2022-11-27T16:23:07.666Z,11.56
2022-11-27T16:25:39.086Z,11.12
2022-11-27T16:28:10.710Z,12.50
2022-11-27T16:30:42.177Z,13.15
2022-11-27T16:33:13.631Z,13.46
2022-11-27T16:35:45.067Z,14.08
2022-11-27T16:38:16.519Z,13.72
2022-11-27T16:40:48.776Z,15.31
2022-11-27T16:43:20.226Z,18.25
2022-11-27T16:45:51.687Z,23.59
2022-11-27T16:48:23.115Z,24.39
2022-11-27T16:51:02.485Z,21.85
2022-11-27T16:53:40.684Z,17.35
2022-11-27T16:56:14.490Z,18.09
2022-11-27T16:58:47.515Z,19.61
2022-11-27T17:01:24.795Z,21.06
2022-11-27T17:03:57.198Z,21.24
2022-11-27T17:06:33.473Z,17.40
2022-11-27T17:09:07.483Z,13.65
2022-11-27T17:11:43.960Z,13.63
2022-11-27T17:14:15.475Z,14.31
2022-11-27T17:16:47.596Z,13.67
2022-11-27T17:19:19.480Z,14.16
2022-11-27T17:21:50.921Z,13.87
2022-11-27T17:24:22.379Z,13.60
2022-11-27T17:26:53.813Z,12.73
2022-11-27T17:29:25.243Z,14.57
2022-11-27T17:32:00.903Z,15.20
2022-11-27T17:34:32.449Z,16.23
2022-11-27T17:37:03.866Z,20.17
2022-11-27T17:39:35.304Z,24.84
2022-11-27T17:42:11.487Z,23.56
2022-11-27T17:44:44.758Z,21.47
2022-11-27T17:47:16.172Z,19.65
2022-11-27T17:49:47.679Z,19.05
2022-11-27T17:52:19.185Z,16.07
2022-11-27T17:54:50.677Z,13.60
2022-11-27T17:57:22.206Z,14.55
2022-11-27T17:59:53.646Z,13.63
2022-11-27T18:02:25.111Z,12.70
2022-11-27T18:04:56.599Z,12.69
2022-11-27T18:07:28.725Z,13.34
2022-11-27T18:10:00.154Z,13.71
2022-11-27T18:12:31.644Z,14.69
2022-11-27T18:15:03.208Z,15.70
2022-11-27T18:17:34.674Z,15.10
2022-11-27T18:20:07.146Z,15.12
2022-11-27T18:22:38.559Z,16.20
2022-11-27T18:25:09.996Z,17.06
2022-11-27T18:27:41.449Z,17.75
2022-11-27T18:30:13.646Z,18.46
2022-11-27T18:32:45.215Z,19.39
2022-11-27T18:35:16.717Z,17.38
2022-11-27T18:37:48.496Z,17.22
2022-11-27T18:40:19.958Z,17.40
2022-11-27T18:42:51.417Z,18.41
2022-11-27T18:45:32.940Z,18.60
2022-11-27T18:48:05.492Z,21.87
2022-11-27T18:50:36.935Z,23.35
2022-11-27T18:53:08.365Z,21.86
2022-11-27T18:55:39.804Z,19.70
2022-11-27T18:58:11.994Z,17.72
2022-11-27T19:00:43.567Z,16.38
2022-11-27T19:03:15.084Z,16.32
2022-11-27T19:05:46.817Z,15.76
2022-11-27T19:08:18.380Z,14.70
2022-11-27T19:10:49.810Z,14.71
2022-11-27T19:13:21.293Z,15.30
2022-11-27T19:15:52.724Z,15.36
2022-11-27T19:18:25.078Z,15.65
2022-11-27T19:20:56.558Z,16.35
2022-11-27T19:23:27.972Z,16.41
2022-11-27T19:26:04.766Z,17.09
2022-11-27T19:28:37.421Z,17.73
2022-11-27T19:31:11.747Z,19.70
2022-11-27T19:33:44.687Z,23.83
2022-11-27T19:36:16.243Z,24.94
2022-11-27T19:39:01.152Z,24.34
2022-11-27T19:41:33.028Z,21.62
2022-11-27T19:44:06.509Z,19.02
2022-11-27T19:46:38.472Z,18.13
2022-11-27T19:49:16.664Z,17.09
2022-11-27T19:51:48.359Z,16.69
2022-11-27T19:54:19.870Z,16.23
2022-11-27T19:56:51.383Z,15.86
2022-11-27T19:59:25.725Z,16.03
2022-11-27T20:01:57.626Z,15.44
2022-11-27T20:04:29.181Z,15.41
2022-11-27T20:07:00.588Z,16.07
2022-11-27T20:09:40.487Z,15.14
2022-11-27T20:12:12.153Z,15.34
2022-11-27T20:14:43.997Z,15.69
2022-11-27T20:17:15.704Z,16.88
2022-11-27T20:19:47.175Z,18.22
2022-11-27T20:22:18.695Z,16.97
2022-11-27T20:25:11.595Z,16.39
2022-11-27T20:27:41.549Z,17.30
2022-11-27T20:30:13.378Z,16.74
2022-11-27T20:32:44.891Z,16.68
2022-11-27T20:35:16.434Z,17.55
2022-11-27T20:37:47.934Z,16.87
2022-11-27T20:40:19.606Z,16.91
2022-11-27T20:42:51.912Z,17.13
2022-11-27T20:45:23.440Z,18.67
2022-11-27T20:47:54.925Z,17.07
2022-11-27T20:50:26.431Z,17.67
2022-11-27T20:52:58.268Z,17.19
2022-11-27T20:55:29.835Z,17.98
2022-11-27T20:58:01.297Z,18.40
2022-11-27T21:00:32.764Z,18.72
2022-11-27T21:03:04.242Z,17.50
2022-11-27T21:05:35.744Z,17.50
2022-11-27T21:08:07.284Z,16.72
2022-11-27T21:10:38.953Z,17.31
2022-11-27T21:13:10.517Z,16.74
2022-11-27T21:15:46.960Z,17.48
2022-11-27T21:18:18.401Z,17.00
2022-11-27T21:20:49.881Z,16.57
2022-11-27T21:23:21.357Z,16.62
2022-11-27T21:25:52.828Z,16.68
2022-11-27T21:28:24.507Z,17.09
2022-11-27T21:31:13.630Z,17.52
2022-11-27T21:33:47.717Z,16.38
2022-11-27T21:36:22.372Z,17.07
2022-11-27T21:38:54.205Z,16.03
2022-11-27T21:41:27.196Z,16.33
2022-11-27T21:44:01.077Z,15.59
2022-11-27T21:46:32.633Z,15.87
2022-11-27T21:49:04.281Z,16.67
2022-11-27T21:51:35.744Z,16.53
2022-11-27T21:54:09.545Z,16.85
2022-11-27T21:56:41.633Z,16.90
2022-11-27T21:59:14.643Z,17.29
2022-11-27T22:01:46.278Z,16.72
2022-11-27T22:04:18.030Z,16.80
2022-11-27T22:06:52.261Z,16.08
2022-11-27T22:09:23.791Z,15.56
2022-11-27T22:11:55.295Z,15.48
2022-11-27T22:14:26.824Z,15.28
2022-11-27T22:16:58.344Z,15.65
2022-11-27T22:19:29.871Z,15.34
2022-11-27T22:22:01.313Z,15.22
2022-11-27T22:24:32.748Z,15.76
2022-11-27T22:27:04.265Z,15.34
2022-11-27T22:29:37.021Z,15.17
2022-11-27T22:32:08.462Z,15.39
2022-11-27T22:34:40.082Z,15.59
2022-11-27T22:37:11.700Z,14.73
2022-11-27T22:39:44.163Z,15.60
2022-11-27T22:42:15.652Z,15.74
2022-11-27T22:44:47.110Z,15.07
2022-11-27T22:47:18.632Z,14.62
2022-11-27T22:49:50.079Z,15.45
2022-11-27T22:52:21.558Z,15.25
2022-11-27T22:54:52.971Z,15.21
2022-11-27T22:57:24.459Z,14.66
2022-11-27T22:59:55.961Z,15.08
2022-11-27T23:02:27.524Z,15.23
2022-11-27T23:04:59.056Z,14.51
2022-11-27T23:07:30.628Z,14.88
2022-11-27T23:10:02.045Z,15.21
2022-11-27T23:12:33.477Z,14.54
2022-11-27T23:15:05.596Z,15.25
2022-11-27T23:17:37.059Z,15.10
2022-11-27T23:20:09.129Z,15.13
2022-11-27T23:22:40.602Z,15.74
2022-11-27T23:25:12.018Z,15.47
2022-11-27T23:27:43.449Z,15.66
2022-11-27T23:30:15.444Z,15.91
2022-11-27T23:32:46.898Z,16.03
2022-11-27T23:35:18.393Z,15.94
2022-11-27T23:37:49.793Z,16.37
2022-11-27T23:40:21.445Z,16.02
2022-11-27T23:42:52.928Z,15.82
2022-11-27T23:45:24.378Z,15.13
2022-11-27T23:47:55.825Z,15.79
2022-11-27T23:50:27.270Z,16.23
2022-11-27T23:52:58.705Z,15.61
2022-11-27T23:55:30.136Z,16.00
2022-11-27T23:58:01.638Z,17.02
